createdAt,value
2022-08-05T00:01:48.989Z,3.05
2022-08-05T00:04:19.380Z,3.47
2022-08-05T00:06:51.553Z,2.90
2022-08-05T00:09:19.562Z,2.83
2022-08-05T00:11:48.419Z,3.33
2022-08-05T00:14:17.135Z,3.30
2022-08-05T00:16:53.410Z,3.10
2022-08-05T00:19:15.391Z,2.58
2022-08-05T00:21:43.127Z,3.22
2022-08-05T00:24:16.197Z,2.90
2022-08-05T00:26:46.703Z,3.00
2022-08-05T00:29:10.256Z,3.10
2022-08-05T00:31:54.474Z,3.30
2022-08-05T00:34:54.217Z,3.08
2022-08-05T00:37:09.801Z,3.12
2022-08-05T00:39:07.174Z,3.12
2022-08-05T00:41:52.116Z,3.15
2022-08-05T00:44:06.349Z,3.40
2022-08-05T00:46:42.769Z,3.50
2022-08-05T00:49:03.924Z,3.42
2022-08-05T00:51:51.999Z,3.42
2022-08-05T00:54:02.956Z,3.15
2022-08-05T00:56:30.722Z,3.83
2022-08-05T00:58:58.394Z,3.22
2022-08-05T01:01:48.732Z,3.25
2022-08-05T01:03:57.171Z,3.30
2022-08-05T01:06:32.442Z,3.12
2022-08-05T01:08:54.493Z,3.30
2022-08-05T01:11:37.172Z,3.20
2022-08-05T01:14:27.898Z,3.37
2022-08-05T01:17:23.111Z,3.02
2022-08-05T01:20:15.459Z,3.65
2022-08-05T01:23:22.763Z,3.12
2022-08-05T01:26:17.822Z,3.20
2022-08-05T01:28:52.194Z,3.27
2022-08-05T01:31:54.598Z,3.30
2022-08-05T01:34:36.475Z,3.50
2022-08-05T01:37:28.538Z,3.72
2022-08-05T01:39:59.167Z,3.30
2022-08-05T01:42:29.705Z,3.27
2022-08-05T01:45:02.420Z,3.22
2022-08-05T01:47:39.426Z,3.17
2022-08-05T01:50:06.392Z,2.90
2022-08-05T01:52:38.142Z,3.30
2022-08-05T01:55:09.757Z,2.90
2022-08-05T01:58:29.163Z,2.92
2022-08-05T02:02:56.276Z,4.12
2022-08-05T02:05:28.615Z,3.55
2022-08-05T02:08:01.735Z,3.43
2022-08-05T02:10:32.339Z,3.17
2022-08-05T02:13:15.988Z,3.15
2022-08-05T02:15:48.969Z,3.70
2022-08-05T02:18:35.542Z,3.25
2022-08-05T02:21:14.980Z,3.40
2022-08-05T02:23:48.502Z,3.40
2022-08-05T02:26:27.832Z,3.30
2022-08-05T02:28:58.267Z,3.20
2022-08-05T02:31:34.777Z,3.80
2022-08-05T02:34:11.946Z,3.75
2022-08-05T02:37:04.423Z,4.00
2022-08-05T02:39:36.621Z,3.57
2022-08-05T02:42:08.757Z,3.87
2022-08-05T02:44:39.681Z,3.92
2022-08-05T02:47:09.957Z,3.80
2022-08-05T02:49:44.040Z,4.30
2022-08-05T02:52:29.849Z,4.30
2022-08-05T02:54:52.044Z,4.00
2022-08-05T02:58:10.667Z,3.52
2022-08-05T03:00:01.611Z,3.67
2022-08-05T03:02:38.458Z,3.52
2022-08-05T03:05:11.609Z,3.50
2022-08-05T03:08:01.617Z,3.72
2022-08-05T03:10:24.604Z,3.83
2022-08-05T03:12:47.058Z,3.40
2022-08-05T03:15:16.894Z,3.90
2022-08-05T03:17:44.953Z,3.42
2022-08-05T03:20:13.498Z,3.72
2022-08-05T03:22:44.107Z,3.70
2022-08-05T03:25:32.956Z,8.50
2022-08-05T03:27:59.291Z,5.22
2022-08-05T03:30:11.325Z,4.55
2022-08-05T03:32:39.226Z,4.03
2022-08-05T03:35:08.838Z,3.85
2022-08-05T03:37:46.438Z,3.62
2022-08-05T03:40:11.802Z,3.40
2022-08-05T03:42:51.473Z,3.22
2022-08-05T03:45:21.601Z,3.12
2022-08-05T03:47:41.337Z,3.08
2022-08-05T03:50:10.225Z,3.50
2022-08-05T03:55:50.745Z,2.92
2022-08-05T03:56:10.130Z,2.90
2022-08-05T03:58:29.067Z,3.45
2022-08-05T04:00:56.843Z,2.80
2022-08-05T04:03:28.304Z,2.87
2022-08-05T04:05:57.989Z,3.00
2022-08-05T04:08:34.953Z,3.00
2022-08-05T04:11:01.678Z,3.10
2022-08-05T04:13:50.544Z,3.37
2022-08-05T04:16:04.590Z,3.08
2022-08-05T04:18:31.702Z,3.90
2022-08-05T04:20:59.510Z,3.17
2022-08-05T04:23:57.318Z,2.90
2022-08-05T04:26:00.900Z,3.05
2022-08-05T04:28:31.756Z,3.00
2022-08-05T04:30:58.800Z,3.05
2022-08-05T04:34:17.041Z,3.15
2022-08-05T04:36:11.219Z,3.02
2022-08-05T04:38:39.186Z,3.17
2022-08-05T04:40:58.199Z,2.83
2022-08-05T04:43:26.291Z,3.40
2022-08-05T04:45:55.791Z,4.15
2022-08-05T04:48:27.507Z,4.45
2022-08-05T04:51:01.585Z,3.40
2022-08-05T04:53:23.747Z,3.27
2022-08-05T04:56:33.365Z,3.20
2022-08-05T04:58:21.685Z,3.25
2022-08-05T05:00:50.871Z,3.45
2022-08-05T05:03:18.708Z,2.98
2022-08-05T05:06:40.468Z,2.98
2022-08-05T05:08:26.719Z,2.80
2022-08-05T05:10:56.275Z,3.45
2022-08-05T05:13:18.648Z,3.27
2022-08-05T05:15:59.437Z,3.20
2022-08-05T05:18:31.054Z,2.87
2022-08-05T05:20:47.859Z,2.80
2022-08-05T05:23:19.530Z,3.05
2022-08-05T05:25:47.768Z,2.52
2022-08-05T05:28:15.601Z,3.00
2022-08-05T05:30:43.502Z,3.12
2022-08-05T05:33:16.896Z,3.22
2022-08-05T05:35:42.779Z,3.15
2022-08-05T05:38:13.178Z,3.35
2022-08-05T05:40:48.302Z,3.12
2022-08-05T05:43:10.897Z,3.27
2022-08-05T05:45:48.146Z,2.90
2022-08-05T05:48:10.065Z,2.65
2022-08-05T05:50:41.183Z,3.12
2022-08-05T05:53:21.526Z,2.80
2022-08-05T05:55:52.345Z,2.65
2022-08-05T05:58:10.398Z,2.60
2022-08-05T06:00:38.200Z,2.70
2022-08-05T06:03:40.224Z,3.00
2022-08-05T06:05:35.912Z,2.58
2022-08-05T06:08:03.989Z,2.67
2022-08-05T06:10:36.336Z,4.08
2022-08-05T06:13:03.432Z,3.20
2022-08-05T06:16:31.066Z,2.90
2022-08-05T06:18:00.662Z,5.10
2022-08-05T06:20:28.341Z,3.55
2022-08-05T06:22:56.435Z,3.17
2022-08-05T06:26:13.765Z,2.70
2022-08-05T06:28:10.872Z,3.47
2022-08-05T06:30:27.402Z,2.75
2022-08-05T06:32:56.018Z,2.67
2022-08-05T06:36:07.601Z,2.80
2022-08-05T06:37:56.390Z,2.55
2022-08-05T06:40:28.031Z,2.47
2022-08-05T06:42:52.845Z,3.02
2022-08-05T06:46:02.972Z,2.42
2022-08-05T06:48:36.927Z,3.95
2022-08-05T06:50:21.284Z,3.70
2022-08-05T06:52:58.748Z,2.92
2022-08-05T06:55:18.460Z,2.70
2022-08-05T06:57:57.534Z,2.77
2022-08-05T07:00:22.165Z,2.50
2022-08-05T07:02:48.040Z,2.80
2022-08-05T07:05:18.832Z,2.62
2022-08-05T07:07:48.471Z,6.92
2022-08-05T07:10:16.477Z,2.60
2022-08-05T07:13:03.838Z,3.00
2022-08-05T07:16:01.104Z,2.55
2022-08-05T07:18:26.975Z,2.37
2022-08-05T07:20:51.073Z,2.62
2022-08-05T07:23:26.465Z,2.62
2022-08-05T07:25:55.001Z,2.67
2022-08-05T07:28:17.664Z,2.92
2022-08-05T07:30:50.327Z,2.80
2022-08-05T07:33:16.036Z,2.85
2022-08-05T07:36:01.815Z,2.58
2022-08-05T07:38:26.453Z,2.50
2022-08-05T07:40:47.182Z,2.45
2022-08-05T07:43:20.617Z,2.33
2022-08-05T07:45:57.193Z,2.50
2022-08-05T07:48:15.805Z,2.85
2022-08-05T07:50:45.244Z,2.60
2022-08-05T07:53:13.342Z,2.50
2022-08-05T07:56:04.731Z,2.75
2022-08-05T07:58:17.690Z,2.70
2022-08-05T08:00:40.387Z,2.87
2022-08-05T08:03:15.269Z,2.60
2022-08-05T08:05:47.424Z,3.08
2022-08-05T08:08:13.551Z,3.20
2022-08-05T08:10:42.989Z,3.15
2022-08-05T08:13:12.491Z,2.42
2022-08-05T08:16:49.872Z,2.70
2022-08-05T08:18:14.305Z,2.40
2022-08-05T08:21:00.126Z,2.70
2022-08-05T08:23:59.828Z,2.70
2022-08-05T08:26:00.031Z,2.52
2022-08-05T08:28:17.961Z,2.35
2022-08-05T08:30:47.732Z,2.55
2022-08-05T08:33:13.594Z,2.72
2022-08-05T08:35:41.414Z,2.17
2022-08-05T08:38:16.249Z,2.45
2022-08-05T08:40:39.825Z,2.90
2022-08-05T08:44:57.933Z,2.70
2022-08-05T08:45:41.530Z,2.30
2022-08-05T08:48:36.170Z,2.10
2022-08-05T08:51:03.272Z,2.47
2022-08-05T08:53:17.067Z,1.90
2022-08-05T08:56:04.279Z,2.20
2022-08-05T08:58:16.607Z,2.25
2022-08-05T09:00:44.972Z,2.30
2022-08-05T09:03:16.309Z,2.12
2022-08-05T09:06:07.624Z,2.10
2022-08-05T09:08:13.271Z,2.10
2022-08-05T09:10:46.854Z,2.17
2022-08-05T09:13:15.098Z,2.00
2022-08-05T09:15:43.773Z,2.12
2022-08-05T09:18:13.480Z,2.10
2022-08-05T09:20:43.898Z,2.35
2022-08-05T09:23:19.646Z,2.00
2022-08-05T09:26:02.468Z,2.00
2022-08-05T09:28:32.641Z,2.30
2022-08-05T09:31:44.208Z,2.00
2022-08-05T09:33:54.307Z,2.40
2022-08-05T09:36:27.853Z,2.20
2022-08-05T09:39:16.470Z,2.08
2022-08-05T09:42:03.149Z,2.02
2022-08-05T09:44:50.687Z,2.12
2022-08-05T09:47:23.444Z,2.00
2022-08-05T09:50:02.255Z,6.37
2022-08-05T09:52:32.750Z,2.12
2022-08-05T09:55:57.261Z,2.00
2022-08-05T09:57:47.148Z,2.05
2022-08-05T10:00:19.699Z,1.80
2022-08-05T10:02:53.748Z,1.85
2022-08-05T10:05:26.802Z,2.20
2022-08-05T10:08:34.817Z,2.22
2022-08-05T10:10:48.285Z,2.00
2022-08-05T10:13:47.199Z,2.08
2022-08-05T10:16:29.619Z,2.15
2022-08-05T10:18:58.514Z,2.30
2022-08-05T10:21:27.017Z,2.00
2022-08-05T10:24:00.417Z,1.87
2022-08-05T10:26:32.629Z,1.70
2022-08-05T10:28:56.509Z,1.80
2022-08-05T10:32:53.125Z,2.00
2022-08-05T10:33:54.440Z,1.70
2022-08-05T10:36:23.738Z,2.10
2022-08-05T10:38:56.693Z,1.77
2022-08-05T10:41:45.209Z,2.08
2022-08-05T10:44:10.042Z,2.02
2022-08-05T10:46:54.761Z,1.85
2022-08-05T10:49:32.868Z,1.87
2022-08-05T10:52:02.308Z,2.27
2022-08-05T10:54:56.672Z,1.92
2022-08-05T10:57:29.693Z,1.90
2022-08-05T11:00:20.562Z,1.80
2022-08-05T11:03:23.239Z,1.95
2022-08-05T11:05:39.567Z,1.90
2022-08-05T11:08:36.754Z,1.90
2022-08-05T11:10:50.402Z,1.70
2022-08-05T11:13:16.651Z,1.85
2022-08-05T11:16:00.098Z,1.90
2022-08-05T11:18:29.981Z,2.00
2022-08-05T11:20:59.018Z,1.80
2022-08-05T11:24:05.409Z,1.60
2022-08-05T11:26:28.646Z,1.82
2022-08-05T11:28:55.098Z,1.77
2022-08-05T11:31:57.004Z,1.80
2022-08-05T11:34:06.346Z,1.87
2022-08-05T11:36:52.859Z,2.05
2022-08-05T11:39:55.529Z,1.95
2022-08-05T11:42:27.981Z,1.60
2022-08-05T11:44:59.445Z,1.70
2022-08-05T11:47:49.602Z,1.67
2022-08-05T11:50:00.085Z,2.00
2022-08-05T11:52:31.175Z,1.82
2022-08-05T11:55:07.436Z,1.80
2022-08-05T11:58:08.002Z,1.90
2022-08-05T12:00:00.787Z,2.00
2022-08-05T12:02:36.057Z,1.87
2022-08-05T12:05:08.262Z,1.70
2022-08-05T12:08:07.567Z,1.70
2022-08-05T12:10:09.647Z,1.70
2022-08-05T12:12:38.290Z,1.60
2022-08-05T12:15:20.308Z,2.10
2022-08-05T12:18:04.164Z,1.77
2022-08-05T12:20:28.673Z,2.65
2022-08-05T12:22:49.111Z,1.87
2022-08-05T12:25:18.456Z,1.80
2022-08-05T12:27:53.168Z,1.98
2022-08-05T12:30:17.497Z,1.70
2022-08-05T12:32:50.513Z,1.90
2022-08-05T12:35:21.897Z,1.85
2022-08-05T12:37:48.936Z,1.72
2022-08-05T12:40:26.779Z,1.85
2022-08-05T12:42:51.294Z,1.90
2022-08-05T12:45:19.161Z,1.60
2022-08-05T12:48:01.372Z,1.87
2022-08-05T12:50:19.825Z,2.00
2022-08-05T12:52:58.559Z,1.77
2022-08-05T12:55:32.468Z,1.80
2022-08-05T12:58:52.341Z,1.62
2022-08-05T13:02:03.462Z,1.80
2022-08-05T13:03:02.567Z,1.62
2022-08-05T13:05:37.335Z,1.50
2022-08-05T13:08:04.970Z,1.57
2022-08-05T13:10:39.620Z,1.77
2022-08-05T13:13:09.814Z,1.80
2022-08-05T13:15:49.169Z,1.50
2022-08-05T13:18:10.242Z,1.60
2022-08-05T13:20:40.381Z,1.67
2022-08-05T13:23:07.593Z,1.80
2022-08-05T13:25:52.253Z,1.70
2022-08-05T13:28:06.232Z,1.50
2022-08-05T13:30:38.949Z,1.50
2022-08-05T13:33:04.282Z,1.57
2022-08-05T13:35:43.008Z,1.50
2022-08-05T13:38:05.038Z,1.85
2022-08-05T13:40:47.977Z,1.72
2022-08-05T13:43:00.974Z,1.73
2022-08-05T13:45:31.026Z,1.57
2022-08-05T13:48:09.170Z,1.35
2022-08-05T13:50:27.703Z,1.90
2022-08-05T13:52:55.466Z,1.80
2022-08-05T13:55:41.635Z,1.75
2022-08-05T13:57:54.505Z,1.52
2022-08-05T14:00:26.933Z,1.55
2022-08-05T14:02:53.085Z,1.50
2022-08-05T14:05:48.269Z,1.50
2022-08-05T14:07:59.920Z,1.50
2022-08-05T14:10:28.496Z,1.70
2022-08-05T14:12:54.646Z,2.00
2022-08-05T14:16:05.754Z,1.82
2022-08-05T14:17:51.692Z,1.67
2022-08-05T14:20:21.417Z,1.62
2022-08-05T14:22:50.944Z,1.75
2022-08-05T14:25:22.234Z,1.40
2022-08-05T14:27:50.813Z,1.50
2022-08-05T14:30:20.158Z,1.80
2022-08-05T14:32:49.012Z,1.67
2022-08-05T14:35:20.669Z,1.70
2022-08-05T14:37:49.016Z,1.70
2022-08-05T14:40:16.791Z,1.55
2022-08-05T14:42:45.095Z,1.45
2022-08-05T14:45:13.407Z,1.50
2022-08-05T14:48:03.210Z,1.42
2022-08-05T14:50:18.480Z,1.50
2022-08-05T14:52:52.425Z,1.80
2022-08-05T14:55:22.279Z,1.60
2022-08-05T14:57:54.026Z,5.92
2022-08-05T15:00:20.732Z,1.70
2022-08-05T15:02:51.907Z,1.60
2022-08-05T15:05:19.737Z,4.28
2022-08-05T15:08:08.587Z,2.35
2022-08-05T15:10:17.576Z,2.20
2022-08-05T15:13:00.501Z,1.60
2022-08-05T15:15:17.311Z,2.87
2022-08-05T15:17:53.180Z,1.62
2022-08-05T15:20:19.294Z,1.55
2022-08-05T15:22:54.207Z,1.85
2022-08-05T15:25:23.461Z,1.72
2022-08-05T15:27:52.030Z,1.50
2022-08-05T15:30:16.817Z,1.80
2022-08-05T15:32:44.777Z,1.50
2022-08-05T15:35:13.623Z,1.90
2022-08-05T15:38:33.409Z,2.80
2022-08-05T15:41:02.518Z,2.20
2022-08-05T15:42:55.653Z,2.70
2022-08-05T15:45:12.505Z,2.15
2022-08-05T15:47:44.247Z,1.87
2022-08-05T15:50:15.096Z,2.47
2022-08-05T15:52:52.694Z,2.30
2022-08-05T15:55:16.064Z,1.92
2022-08-05T15:57:45.139Z,2.00
2022-08-05T16:00:16.762Z,1.80
2022-08-05T16:02:43.349Z,1.87
2022-08-05T16:05:11.569Z,2.20
2022-08-05T16:07:39.364Z,1.60
2022-08-05T16:10:11.676Z,1.75
2022-08-05T16:12:39.453Z,3.10
2022-08-05T16:15:07.920Z,2.62
2022-08-05T16:17:37.290Z,1.70
2022-08-05T16:20:12.060Z,1.55
2022-08-05T16:22:37.015Z,1.43
2022-08-05T16:25:08.001Z,1.60
2022-08-05T16:28:00.016Z,1.40
2022-08-05T16:30:08.398Z,1.47
2022-08-05T16:32:37.942Z,1.50
2022-08-05T16:35:07.136Z,1.70
2022-08-05T16:38:16.076Z,1.60
2022-08-05T16:40:13.467Z,1.60
2022-08-05T16:42:37.805Z,1.42
2022-08-05T16:46:05.303Z,1.60
2022-08-05T16:47:48.364Z,1.52
2022-08-05T16:50:10.688Z,1.55
2022-08-05T16:52:38.430Z,1.27
2022-08-05T16:55:08.484Z,1.70
2022-08-05T16:57:53.110Z,1.70
2022-08-05T17:00:10.603Z,1.80
2022-08-05T17:02:38.462Z,2.50
2022-08-05T17:05:08.263Z,2.62
2022-08-05T17:07:43.569Z,2.52
2022-08-05T17:10:06.659Z,2.60
2022-08-05T17:12:50.253Z,1.90
2022-08-05T17:15:05.019Z,2.20
2022-08-05T17:17:42.363Z,2.10
2022-08-05T17:20:08.119Z,2.42
2022-08-05T17:22:37.629Z,2.42
2022-08-05T17:25:22.021Z,2.20
2022-08-05T17:27:35.497Z,2.40
2022-08-05T17:30:11.902Z,2.40
2022-08-05T17:32:36.769Z,2.22
2022-08-05T17:35:05.240Z,3.00
2022-08-05T17:37:40.788Z,3.17
2022-08-05T17:40:10.858Z,2.40
2022-08-05T17:42:46.602Z,2.50
2022-08-05T17:45:20.612Z,2.55
2022-08-05T17:47:41.173Z,2.10
2022-08-05T17:50:11.352Z,2.08
2022-08-05T17:52:52.973Z,1.85
2022-08-05T17:55:11.478Z,1.95
2022-08-05T17:57:40.984Z,2.10
2022-08-05T18:00:12.397Z,2.27
2022-08-05T18:02:41.952Z,3.40
2022-08-05T18:05:10.989Z,2.85
2022-08-05T18:07:41.583Z,2.80
2022-08-05T18:10:20.409Z,2.87
2022-08-05T18:12:41.550Z,2.98
2022-08-05T18:15:10.384Z,3.65
2022-08-05T18:18:00.353Z,5.03
2022-08-05T18:20:14.047Z,3.45
2022-08-05T18:22:54.268Z,4.83
2022-08-05T18:25:10.640Z,3.60
2022-08-05T18:27:40.090Z,2.92
2022-08-05T18:30:10.469Z,5.05
2022-08-05T18:32:39.833Z,3.45
2022-08-05T18:35:11.501Z,2.85
2022-08-05T18:37:40.058Z,2.30
2022-08-05T18:40:34.169Z,2.50
2022-08-05T18:42:41.162Z,2.45
2022-08-05T18:45:10.454Z,2.50
2022-08-05T18:47:38.158Z,2.50
2022-08-05T18:50:42.253Z,2.20
2022-08-05T18:52:54.763Z,2.90
2022-08-05T18:55:22.580Z,5.15
2022-08-05T18:57:53.102Z,4.72
2022-08-05T19:00:28.539Z,4.53
2022-08-05T19:02:52.464Z,3.95
2022-08-05T19:06:11.284Z,3.87
2022-08-05T19:07:52.097Z,3.70
2022-08-05T19:10:26.525Z,3.60
2022-08-05T19:12:50.836Z,3.70
2022-08-05T19:15:56.852Z,3.55
2022-08-05T19:18:09.762Z,3.90
2022-08-05T19:20:18.006Z,3.75
2022-08-05T19:22:45.515Z,4.03
2022-08-05T19:25:21.686Z,4.20
2022-08-05T19:27:43.229Z,4.00
2022-08-05T19:30:12.254Z,4.90
2022-08-05T19:32:41.273Z,4.15
2022-08-05T19:35:09.943Z,4.35
2022-08-05T19:37:47.315Z,3.92
2022-08-05T19:40:10.142Z,4.15
2022-08-05T19:42:38.872Z,3.87
2022-08-05T19:45:08.810Z,3.55
2022-08-05T19:47:39.753Z,3.98
2022-08-05T19:50:11.928Z,4.10
2022-08-05T19:52:37.636Z,4.15
2022-08-05T19:55:08.691Z,3.75
2022-08-05T19:57:47.296Z,3.70
2022-08-05T20:00:07.159Z,3.33
2022-08-05T20:02:36.697Z,3.65
2022-08-05T20:05:05.259Z,3.33
2022-08-05T20:07:46.022Z,4.00
2022-08-05T20:10:11.613Z,3.52
2022-08-05T20:12:35.698Z,3.80
2022-08-05T20:15:05.373Z,4.00
2022-08-05T20:17:36.409Z,4.65
2022-08-05T20:20:09.534Z,4.87
2022-08-05T20:22:36.552Z,5.28
2022-08-05T20:25:05.112Z,4.60
2022-08-05T20:27:41.564Z,4.20
2022-08-05T20:30:02.454Z,4.17
2022-08-05T20:32:30.461Z,4.17
2022-08-05T20:34:59.854Z,3.40
2022-08-05T20:38:05.039Z,3.58
2022-08-05T20:39:58.245Z,3.42
2022-08-05T20:42:26.287Z,3.67
2022-08-05T20:44:55.371Z,3.92
2022-08-05T20:47:31.819Z,3.72
2022-08-05T20:49:53.943Z,3.58
2022-08-05T20:52:24.054Z,3.00
2022-08-05T20:54:59.680Z,2.70
2022-08-05T20:57:24.716Z,2.58
2022-08-05T21:00:20.762Z,2.80
2022-08-05T21:02:20.676Z,2.85
2022-08-05T21:04:50.126Z,2.70
2022-08-05T21:07:18.296Z,3.17
2022-08-05T21:09:50.256Z,2.90
2022-08-05T21:12:17.033Z,3.05
2022-08-05T21:14:45.502Z,3.25
2022-08-05T21:17:15.134Z,2.98
2022-08-05T21:19:47.989Z,2.90
2022-08-05T21:22:12.723Z,2.98
2022-08-05T21:24:42.617Z,3.25
2022-08-05T21:27:11.277Z,3.02
2022-08-05T21:29:40.571Z,3.35
2022-08-05T21:32:08.499Z,3.15
2022-08-05T21:34:36.343Z,3.10
2022-08-05T21:37:04.497Z,3.30
2022-08-05T21:39:34.495Z,3.25
2022-08-05T21:42:02.242Z,3.00
2022-08-05T21:44:31.807Z,3.10
2022-08-05T21:47:00.889Z,3.10
2022-08-05T21:49:59.336Z,3.17
2022-08-05T21:52:21.457Z,3.20
2022-08-05T21:54:31.089Z,3.50
2022-08-05T21:57:15.388Z,3.50
2022-08-05T21:59:33.739Z,3.67
2022-08-05T22:01:56.621Z,3.62
2022-08-05T22:04:25.495Z,3.60
2022-08-05T22:06:53.629Z,3.85
2022-08-05T22:09:21.774Z,3.50
2022-08-05T22:11:50.013Z,3.65
2022-08-05T22:14:35.028Z,3.67
2022-08-05T22:16:51.170Z,3.77
2022-08-05T22:20:01.701Z,3.77
2022-08-05T22:21:47.346Z,3.92
2022-08-05T22:24:40.533Z,3.80
2022-08-05T22:27:23.619Z,3.90
2022-08-05T22:29:54.137Z,3.85
2022-08-05T22:32:21.147Z,3.77
2022-08-05T22:34:50.656Z,3.70
2022-08-05T22:37:18.228Z,4.10
2022-08-05T22:39:50.531Z,3.80
2022-08-05T22:42:25.326Z,4.08
2022-08-05T22:44:53.642Z,4.15
2022-08-05T22:47:14.765Z,3.83
2022-08-05T22:50:19.259Z,4.33
2022-08-05T22:52:30.418Z,4.40
2022-08-05T22:54:48.936Z,3.90
2022-08-05T22:57:16.725Z,4.42
2022-08-05T22:59:53.598Z,3.92
2022-08-05T23:02:16.796Z,3.75
2022-08-05T23:04:51.279Z,4.15
2022-08-05T23:07:14.556Z,4.20
2022-08-05T23:09:57.951Z,4.10
2022-08-05T23:12:12.801Z,4.37
2022-08-05T23:14:40.496Z,4.35
2022-08-05T23:17:34.697Z,4.40
2022-08-05T23:19:58.527Z,4.20
2022-08-05T23:22:28.149Z,4.72
2022-08-05T23:24:55.865Z,4.53
2022-08-05T23:27:24.039Z,4.37
2022-08-05T23:29:51.998Z,4.60
2022-08-05T23:32:22.792Z,4.85
2022-08-05T23:34:49.671Z,5.25
2022-08-05T23:37:18.572Z,4.85
2022-08-05T23:39:54.042Z,4.75
2022-08-05T23:42:15.880Z,4.85
2022-08-05T23:44:45.432Z,4.60
2022-08-05T23:47:15.916Z,5.42
2022-08-05T23:49:45.862Z,4.67
2022-08-05T23:52:26.063Z,4.60
2022-08-05T23:55:08.981Z,4.83
2022-08-05T23:57:36.964Z,4.90
